createdAt,value
2017-09-20T03:30:38.523Z,12.70
2017-09-20T03:33:06.284Z,12.70
2017-09-20T03:35:34.373Z,12.70
2017-09-20T03:38:01.994Z,12.80
2017-09-20T03:40:29.656Z,12.90
2017-09-20T03:42:57.285Z,12.80
2017-09-20T03:45:24.886Z,12.80
2017-09-20T03:47:52.870Z,12.80
2017-09-20T03:50:20.512Z,12.80
2017-09-20T03:52:48.148Z,12.80
2017-09-20T03:55:16.172Z,12.80
2017-09-20T03:57:43.762Z,12.80
2017-09-20T04:00:12.129Z,13.00
2017-09-20T04:02:40.801Z,13.00
2017-09-20T04:05:08.401Z,13.00
2017-09-20T04:07:36.004Z,12.90
2017-09-20T04:10:03.642Z,13.00
2017-09-20T04:12:31.254Z,12.90
2017-09-20T04:15:00.165Z,12.90
2017-09-20T04:17:28.570Z,12.90
2017-09-20T04:19:56.189Z,12.90
2017-09-20T04:22:24.586Z,12.90
2017-09-20T04:24:52.198Z,12.90
2017-09-20T04:27:20.165Z,13.00
2017-09-20T04:29:47.756Z,13.10
2017-09-20T04:32:16.166Z,13.00
2017-09-20T04:34:44.182Z,13.00
2017-09-20T04:37:11.806Z,13.00
2017-09-20T04:39:39.441Z,12.90
2017-09-20T04:42:07.076Z,13.00
2017-09-20T04:44:34.675Z,13.10
2017-09-20T04:47:02.698Z,13.20
2017-09-20T04:49:30.308Z,13.10
2017-09-20T04:51:57.920Z,13.10
2017-09-20T04:54:25.543Z,13.10
2017-09-20T04:56:53.143Z,13.10
2017-09-20T04:59:21.110Z,13.00
2017-09-20T05:01:48.723Z,13.10
2017-09-20T05:04:16.333Z,13.10
2017-09-20T05:06:43.965Z,13.10
2017-09-20T05:09:11.565Z,13.10
2017-09-20T05:11:39.577Z,13.10
2017-09-20T05:14:07.189Z,13.10
2017-09-20T05:16:34.796Z,13.00
2017-09-20T05:19:02.392Z,13.10
2017-09-20T05:21:29.998Z,13.20
2017-09-20T05:23:58.720Z,13.10
2017-09-20T05:26:26.329Z,13.10
2017-09-20T05:28:53.943Z,13.00
2017-09-20T05:31:21.936Z,13.10
2017-09-20T05:33:49.541Z,13.10
2017-09-20T05:36:17.158Z,13.10
2017-09-20T05:38:45.255Z,13.10
2017-09-20T05:41:12.840Z,13.00
2017-09-20T05:43:40.520Z,13.00
2017-09-20T05:46:08.531Z,13.10
2017-09-20T05:48:36.134Z,13.10
2017-09-20T05:51:03.754Z,13.10
2017-09-20T05:53:31.739Z,13.10
2017-09-20T05:56:00.116Z,13.10
2017-09-20T05:58:28.507Z,13.20
2017-09-20T06:00:56.974Z,13.10
2017-09-20T06:03:24.586Z,13.10
2017-09-20T06:05:52.600Z,12.80
2017-09-20T06:08:20.973Z,12.80
2017-09-20T06:10:48.636Z,12.80
2017-09-20T06:13:16.265Z,12.80
2017-09-20T06:15:43.869Z,12.90
2017-09-20T06:18:12.630Z,12.70
2017-09-20T06:20:40.238Z,12.70
2017-09-20T06:23:07.852Z,12.70
2017-09-20T06:25:35.480Z,13.00
2017-09-20T06:28:03.075Z,13.00
2017-09-20T06:30:31.040Z,13.00
2017-09-20T06:32:58.652Z,13.00
2017-09-20T06:35:26.250Z,13.00
2017-09-20T06:37:53.885Z,12.80
2017-09-20T06:40:21.503Z,12.90
2017-09-20T06:42:50.201Z,13.00
2017-09-20T06:45:18.566Z,13.10
2017-09-20T06:47:46.158Z,13.10
2017-09-20T06:50:13.778Z,13.20
2017-09-20T06:52:41.398Z,13.20
2017-09-20T06:55:09.308Z,13.40
2017-09-20T06:57:36.912Z,13.40
2017-09-20T07:00:04.508Z,13.30
2017-09-20T07:02:32.246Z,13.40
2017-09-20T07:05:00.111Z,13.30
2017-09-20T07:07:28.171Z,13.10
2017-09-20T07:09:55.794Z,13.10
2017-09-20T07:12:23.405Z,13.10
2017-09-20T07:14:51.321Z,13.10
2017-09-20T07:17:18.925Z,13.10
2017-09-20T07:19:46.520Z,13.00
2017-09-20T07:22:14.649Z,13.00
2017-09-20T07:24:42.271Z,13.10
2017-09-20T07:27:09.880Z,13.00
2017-09-20T07:29:37.501Z,12.80
2017-09-20T07:32:05.899Z,13.20
2017-09-20T07:34:34.603Z,13.50
2017-09-20T07:37:02.204Z,13.40
2017-09-20T07:39:29.819Z,13.60
2017-09-20T07:41:57.448Z,13.80
2017-09-20T07:44:25.059Z,13.70
2017-09-20T07:46:52.965Z,13.80
2017-09-20T07:49:20.625Z,14.00
2017-09-20T07:51:48.306Z,14.00
2017-09-20T07:54:16.262Z,13.90
2017-09-20T07:56:43.875Z,13.90
2017-09-20T07:59:11.485Z,14.00
2017-09-20T08:01:39.132Z,14.10
2017-09-20T08:04:06.778Z,14.20
2017-09-20T08:06:34.768Z,14.40
2017-09-20T08:09:02.384Z,14.60
2017-09-20T08:11:29.984Z,14.60
2017-09-20T08:13:58.643Z,14.30
2017-09-20T08:16:26.318Z,14.20
2017-09-20T08:18:53.920Z,14.10
2017-09-20T08:21:22.310Z,14.10
2017-09-20T08:23:50.681Z,14.20
2017-09-20T08:26:19.464Z,14.30
2017-09-20T08:28:47.843Z,14.40
2017-09-20T08:31:16.215Z,14.60
2017-09-20T08:33:43.825Z,14.50
2017-09-20T08:36:11.419Z,14.50
2017-09-20T08:38:39.313Z,14.30
2017-09-20T08:41:07.668Z,14.40
2017-09-20T08:43:35.267Z,14.40
2017-09-20T08:46:03.662Z,14.40
2017-09-20T08:48:31.267Z,14.30
2017-09-20T08:50:59.241Z,14.10
2017-09-20T08:53:26.850Z,14.10
2017-09-20T08:55:54.456Z,14.50
2017-09-20T08:58:22.521Z,14.90
2017-09-20T09:00:50.125Z,15.00
2017-09-20T09:03:18.492Z,15.10
2017-09-20T09:05:47.256Z,14.90
2017-09-20T09:08:14.858Z,14.90
2017-09-20T09:10:42.465Z,14.90
2017-09-20T09:13:11.272Z,15.00
2017-09-20T09:15:38.881Z,14.70
2017-09-20T09:18:06.474Z,14.40
2017-09-20T09:20:34.152Z,14.50
2017-09-20T09:23:01.758Z,14.60
2017-09-20T09:25:29.652Z,14.80
2017-09-20T09:27:57.259Z,14.90
2017-09-20T09:30:25.624Z,15.70
2017-09-20T09:32:53.533Z,15.70
2017-09-20T09:35:21.135Z,16.00
2017-09-20T09:37:48.733Z,16.00
2017-09-20T09:40:17.159Z,15.90
2017-09-20T09:42:44.877Z,15.90
2017-09-20T09:45:13.629Z,16.00
2017-09-20T09:47:42.750Z,16.20
2017-09-20T09:50:11.123Z,16.70
2017-09-20T09:52:38.756Z,16.70
2017-09-20T09:55:06.418Z,16.70
2017-09-20T09:57:34.510Z,16.70
2017-09-20T10:00:02.126Z,17.00
2017-09-20T10:02:29.735Z,17.30
2017-09-20T10:04:57.350Z,17.60
2017-09-20T10:07:25.034Z,17.90
2017-09-20T10:09:52.926Z,18.50
2017-09-20T10:12:20.542Z,18.80
2017-09-20T10:14:48.140Z,19.20
2017-09-20T10:17:15.765Z,19.60
2017-09-20T10:19:43.437Z,19.90
2017-09-20T10:22:11.355Z,20.50
2017-09-20T10:24:39.738Z,22.00
2017-09-20T10:27:08.127Z,25.00
2017-09-20T10:29:35.761Z,25.00
2017-09-20T10:32:03.368Z,26.90
2017-09-20T10:34:31.390Z,29.70
2017-09-20T10:36:59.001Z,31.30
2017-09-20T10:39:26.617Z,30.90
2017-09-20T10:41:55.018Z,24.80
2017-09-20T10:44:22.722Z,24.70
2017-09-20T10:46:50.746Z,23.20
2017-09-20T10:49:19.151Z,22.80
2017-09-20T10:51:46.754Z,22.80
2017-09-20T10:54:14.438Z,22.90
2017-09-20T10:56:42.817Z,23.90
2017-09-20T10:59:11.567Z,24.20
2017-09-20T11:01:39.189Z,24.20
2017-09-20T11:04:06.798Z,23.70
2017-09-20T11:06:34.423Z,23.60
2017-09-20T11:09:02.030Z,23.90
2017-09-20T11:11:30.095Z,23.20
2017-09-20T11:13:57.694Z,22.20
2017-09-20T11:16:25.296Z,21.50
2017-09-20T11:18:52.944Z,20.90
2017-09-20T11:21:20.587Z,20.40
2017-09-20T11:23:48.511Z,19.80
2017-09-20T11:26:16.112Z,19.50
2017-09-20T11:28:43.720Z,19.50
2017-09-20T11:31:11.799Z,20.10
2017-09-20T11:33:39.409Z,21.30
2017-09-20T11:36:07.054Z,22.60
2017-09-20T11:38:35.446Z,22.80
2017-09-20T11:41:03.074Z,22.70
2017-09-20T11:43:31.022Z,22.80
2017-09-20T11:45:58.693Z,22.30
2017-09-20T11:48:26.319Z,22.00
2017-09-20T11:50:53.940Z,21.60
2017-09-20T11:53:22.310Z,22.60
2017-09-20T11:55:51.078Z,22.70
2017-09-20T11:58:18.681Z,22.70
2017-09-20T12:00:46.280Z,22.30
2017-09-20T12:03:14.235Z,21.70
2017-09-20T12:05:41.843Z,21.40
2017-09-20T12:08:09.454Z,20.50
2017-09-20T12:10:37.461Z,20.00
2017-09-20T12:13:05.078Z,19.60
2017-09-20T12:15:32.763Z,19.30
2017-09-20T12:18:00.411Z,20.00
2017-09-20T12:20:28.033Z,20.70
2017-09-20T12:22:57.672Z,22.80
2017-09-20T12:25:25.282Z,22.80
2017-09-20T12:27:52.881Z,23.70
2017-09-20T12:30:20.585Z,23.90
2017-09-20T12:32:48.187Z,26.70
2017-09-20T12:35:16.904Z,33.80
2017-09-20T12:37:44.508Z,33.60
2017-09-20T12:40:12.146Z,34.00
2017-09-20T12:42:39.762Z,34.90
2017-09-20T12:45:09.349Z,37.50
2017-09-20T12:47:38.220Z,37.60
2017-09-20T12:50:05.851Z,37.60
2017-09-20T12:52:33.458Z,37.90
2017-09-20T12:55:01.590Z,37.10
2017-09-20T12:57:29.200Z,36.30
2017-09-20T12:59:57.962Z,31.30
2017-09-20T13:02:25.558Z,31.20
2017-09-20T13:04:53.945Z,29.10
2017-09-20T13:07:21.563Z,29.00
2017-09-20T13:09:49.168Z,33.10
2017-09-20T13:12:17.156Z,33.10
2017-09-20T13:14:44.750Z,31.00
2017-09-20T13:17:12.354Z,28.10
2017-09-20T13:19:40.759Z,25.40
2017-09-20T13:22:08.358Z,25.30
2017-09-20T13:24:36.380Z,24.60
2017-09-20T13:27:03.984Z,24.20
2017-09-20T13:29:31.587Z,24.00
2017-09-20T13:31:59.205Z,23.50
2017-09-20T13:34:26.795Z,22.80
2017-09-20T13:36:55.566Z,21.80
2017-09-20T13:39:23.149Z,21.70
2017-09-20T13:41:51.522Z,21.20
2017-09-20T13:44:19.899Z,21.50
2017-09-20T13:46:48.270Z,20.90
2017-09-20T13:49:17.036Z,21.30
2017-09-20T13:51:44.632Z,21.30
2017-09-20T13:54:13.006Z,22.60
2017-09-20T13:56:41.397Z,22.70
2017-09-20T13:59:09.924Z,22.70
2017-09-20T14:01:37.518Z,22.50
2017-09-20T14:04:05.901Z,21.70
2017-09-20T14:06:34.265Z,21.80
2017-09-20T14:09:02.225Z,21.80
2017-09-20T14:11:29.820Z,21.90
2017-09-20T14:13:57.424Z,21.90
2017-09-20T14:16:25.058Z,21.80
2017-09-20T14:18:52.709Z,21.70
2017-09-20T14:21:20.649Z,22.10
2017-09-20T14:23:48.250Z,22.50
2017-09-20T14:26:15.858Z,22.40
2017-09-20T14:28:43.479Z,22.20
2017-09-20T14:31:11.082Z,21.90
2017-09-20T14:33:39.048Z,21.80
2017-09-20T14:36:06.708Z,21.40
2017-09-20T14:38:34.308Z,21.30
2017-09-20T14:41:01.922Z,21.20
2017-09-20T14:43:29.529Z,21.00
2017-09-20T14:45:57.564Z,21.00
2017-09-20T14:48:25.154Z,21.00
2017-09-20T14:50:53.521Z,20.80
2017-09-20T14:53:21.914Z,20.50
2017-09-20T14:55:50.293Z,20.40
2017-09-20T14:58:19.063Z,20.50
2017-09-20T15:00:47.432Z,20.60
2017-09-20T15:03:15.052Z,20.60
2017-09-20T15:05:42.663Z,19.90
2017-09-20T15:08:11.036Z,19.60
2017-09-20T15:10:39.101Z,19.60
2017-09-20T15:13:06.711Z,19.70
2017-09-20T15:15:34.314Z,19.50
2017-09-20T15:18:01.941Z,19.30
2017-09-20T15:20:29.610Z,19.30
2017-09-20T15:22:57.225Z,19.20
2017-09-20T15:25:26.067Z,18.90
2017-09-20T15:27:53.682Z,18.90
2017-09-20T15:30:22.056Z,18.80
2017-09-20T15:32:50.512Z,18.80
2017-09-20T15:35:19.154Z,18.60
2017-09-20T15:37:47.163Z,18.60
2017-09-20T15:40:14.770Z,18.50
2017-09-20T15:42:42.376Z,18.20
2017-09-20T15:45:10.048Z,18.20
2017-09-20T15:47:37.681Z,18.10
2017-09-20T15:50:05.673Z,18.20
2017-09-20T15:52:33.288Z,18.10
2017-09-20T15:55:00.903Z,18.10
2017-09-20T15:57:28.520Z,17.90
2017-09-20T15:59:56.173Z,17.90
2017-09-20T16:02:24.153Z,17.80
2017-09-20T16:04:51.752Z,17.70
2017-09-20T16:07:19.448Z,17.90
2017-09-20T16:09:47.850Z,17.90
2017-09-20T16:12:15.454Z,17.90
2017-09-20T16:14:43.079Z,17.80
2017-09-20T16:17:11.089Z,17.80
2017-09-20T16:19:38.706Z,17.80
2017-09-20T16:22:06.300Z,17.80
2017-09-20T16:24:33.952Z,17.80
2017-09-20T16:27:01.552Z,17.70
2017-09-20T16:29:30.317Z,17.70
2017-09-20T16:31:57.926Z,17.60
2017-09-20T16:34:25.551Z,17.60
2017-09-20T16:36:55.147Z,17.50
2017-09-20T16:39:23.498Z,17.50
2017-09-20T16:41:51.505Z,17.30
2017-09-20T16:44:19.215Z,17.30
2017-09-20T16:46:46.867Z,17.30
2017-09-20T16:49:16.747Z,17.30
2017-09-20T16:51:45.327Z,17.10
2017-09-20T16:54:13.708Z,17.10
2017-09-20T16:56:42.485Z,17.00
2017-09-20T16:59:10.081Z,17.00
2017-09-20T17:01:37.686Z,17.00
2017-09-20T17:04:05.675Z,17.00
2017-09-20T17:06:33.282Z,17.00
2017-09-20T17:09:00.915Z,17.00
2017-09-20T17:11:29.691Z,16.80
2017-09-20T17:13:57.310Z,16.70
2017-09-20T17:16:24.950Z,16.60
2017-09-20T17:18:52.991Z,16.50
2017-09-20T17:21:21.366Z,16.60
2017-09-20T17:23:49.030Z,16.60
2017-09-20T17:26:17.478Z,16.70
2017-09-20T17:28:45.090Z,16.70
2017-09-20T17:31:13.128Z,16.70
2017-09-20T17:33:40.728Z,16.80
2017-09-20T17:36:09.336Z,16.70
2017-09-20T17:38:36.976Z,16.70
2017-09-20T17:41:04.618Z,16.70
2017-09-20T17:43:33.406Z,16.60
2017-09-20T17:46:01.786Z,16.60
2017-09-20T17:48:30.774Z,16.60
2017-09-20T17:50:59.186Z,16.60
2017-09-20T17:53:26.873Z,16.50
2017-09-20T17:55:55.164Z,16.60
2017-09-20T17:58:22.805Z,16.60
2017-09-20T18:00:50.440Z,16.50
2017-09-20T18:03:18.217Z,16.50
2017-09-20T18:05:46.100Z,16.40
2017-09-20T18:08:13.730Z,16.30
2017-09-20T18:10:41.385Z,16.20
2017-09-20T18:13:09.102Z,16.30
2017-09-20T18:15:37.274Z,16.40
2017-09-20T18:18:04.881Z,16.40
2017-09-20T18:20:32.505Z,16.20
2017-09-20T18:23:00.564Z,16.10
2017-09-20T18:25:28.938Z,16.10
2017-09-20T18:27:57.424Z,16.10
2017-09-20T18:30:25.417Z,16.00
2017-09-20T18:32:53.024Z,16.10
2017-09-20T18:35:20.730Z,16.20
2017-09-20T18:37:48.823Z,16.20
2017-09-20T18:40:17.373Z,16.30
2017-09-20T18:42:44.993Z,16.30
2017-09-20T18:45:14.101Z,16.30
2017-09-20T18:47:41.780Z,16.30
2017-09-20T18:50:09.523Z,16.30
2017-09-20T18:52:37.710Z,16.20
2017-09-20T18:55:05.329Z,16.20
2017-09-20T18:57:33.947Z,16.10
2017-09-20T19:00:01.693Z,16.10
2017-09-20T19:02:29.319Z,16.10
2017-09-20T19:04:57.394Z,16.10
2017-09-20T19:07:24.993Z,16.10
2017-09-20T19:09:52.873Z,16.10
2017-09-20T19:12:20.901Z,16.20
2017-09-20T19:14:49.325Z,16.20
2017-09-20T19:17:16.940Z,16.20
2017-09-20T19:19:45.374Z,16.10
2017-09-20T19:22:13.352Z,16.10
2017-09-20T19:24:41.357Z,16.10
2017-09-20T19:27:08.984Z,16.00
2017-09-20T19:29:36.602Z,15.90
2017-09-20T19:32:04.322Z,15.90
2017-09-20T19:34:31.934Z,15.90
2017-09-20T19:37:00.068Z,15.80
2017-09-20T19:39:28.526Z,15.80
2017-09-20T19:41:56.962Z,15.90
2017-09-20T19:44:25.001Z,15.90
2017-09-20T19:46:52.729Z,15.90
2017-09-20T19:49:20.451Z,15.80
2017-09-20T19:51:49.311Z,15.90
2017-09-20T19:54:16.960Z,15.90
2017-09-20T19:56:44.650Z,15.80
2017-09-20T19:59:14.389Z,15.80
2017-09-20T20:01:42.023Z,15.70
2017-09-20T20:04:10.472Z,15.70
2017-09-20T20:06:38.135Z,15.70
2017-09-20T20:09:05.885Z,15.70
2017-09-20T20:11:34.018Z,15.80
2017-09-20T20:14:02.429Z,15.70
2017-09-20T20:16:30.040Z,15.70
2017-09-20T20:18:58.443Z,15.70
2017-09-20T20:21:26.086Z,15.70
2017-09-20T20:23:54.827Z,15.70
2017-09-20T20:26:22.618Z,15.70
2017-09-20T20:28:50.252Z,15.70
2017-09-20T20:31:18.785Z,15.60
2017-09-20T20:33:47.169Z,15.60
2017-09-20T20:36:15.110Z,15.50
2017-09-20T20:38:42.715Z,15.60
2017-09-20T20:41:10.370Z,15.60
2017-09-20T20:43:38.004Z,15.60
2017-09-20T20:46:06.381Z,15.60
2017-09-20T20:48:34.451Z,15.60
2017-09-20T20:51:02.083Z,15.50
2017-09-20T20:53:29.776Z,15.50
2017-09-20T20:55:57.398Z,15.50
2017-09-20T20:58:25.885Z,15.20
2017-09-20T21:00:53.980Z,14.90
2017-09-20T21:03:21.582Z,15.00
2017-09-20T21:05:49.175Z,15.20
2017-09-20T21:08:16.788Z,15.30
2017-09-20T21:10:45.157Z,15.20
2017-09-20T21:13:13.900Z,15.20
2017-09-20T21:15:41.501Z,15.20
2017-09-20T21:18:09.868Z,15.30
2017-09-20T21:20:37.495Z,15.20
2017-09-20T21:23:05.156Z,15.40
2017-09-20T21:25:33.119Z,15.30
2017-09-20T21:28:00.727Z,15.20
2017-09-20T21:30:28.424Z,15.00
2017-09-20T21:32:56.757Z,15.10
2017-09-20T21:35:24.390Z,15.20
2017-09-20T21:37:51.994Z,15.30
2017-09-20T21:40:20.756Z,15.40
2017-09-20T21:42:48.350Z,15.40
2017-09-20T21:45:16.726Z,15.40
2017-09-20T21:47:45.115Z,15.40
2017-09-20T21:50:13.620Z,15.40
2017-09-20T21:52:41.661Z,15.30
2017-09-20T21:55:10.028Z,15.30
2017-09-20T21:57:38.398Z,15.30
2017-09-20T22:00:06.681Z,15.20
2017-09-20T22:02:35.045Z,15.30
2017-09-20T22:05:02.732Z,15.30
2017-09-20T22:07:31.122Z,15.20
2017-09-20T22:09:58.729Z,15.20
2017-09-20T22:12:26.820Z,15.30
2017-09-20T22:14:53.902Z,15.20
2017-09-20T22:17:34.533Z,15.10
2017-09-20T22:20:14.038Z,15.10
2017-09-20T22:22:53.808Z,15.00
2017-09-20T22:25:34.039Z,15.00
2017-09-20T22:28:02.874Z,15.00
